Time;durP1;ratioP1;P1;durP2;ratioP2;P2;SDS_P1;SDS_P2;PMS_P1;PMS_P2;Temp;Humidity;BMP_temperature;BMP_pressure;BME280_temperature;BME280_humidity;BME280_pressure;Samples;Min_cycle;Max_cycle;Signal;HPM_P1;HPM_P2
2022/07/08 00:02:03;;;;;;;;;;;;;;;19.80;46.69;101931.91;4958483;28;6777;-78
2022/07/08 00:04:29;;;;;;;;;;;;;;;19.75;46.64;101936.06;4975332;28;6920;-79
2022/07/08 00:06:54;;;;;;;;;;;;;;;19.69;46.72;101931.53;4948717;28;7880;-78
2022/07/08 00:09:20;;;;;;;;;;;;;;;19.65;46.88;101933.97;4953511;28;6768;-79
2022/07/08 00:11:46;;;;;;;;;;;;;;;19.62;47.19;101936.47;4980841;28;7067;-78
2022/07/08 00:14:12;;;;;;;;;;;;;;;19.58;46.86;101930.28;4952280;28;7343;-78
2022/07/08 00:16:40;;;;;;;;;;;;;;;19.53;47.48;101930.13;4959101;28;8352;-78
2022/07/08 00:19:12;;;;;;;;;;;;;;;19.52;47.41;101935.25;4961726;28;6796;-78
2022/07/08 00:21:38;;;;;;;;;;;;;;;19.50;47.72;101935.19;4957985;28;7162;-78
2022/07/08 00:24:04;;;;;;;;;;;;;;;19.47;47.54;101927.28;4945067;28;7032;-78
2022/07/08 00:26:30;;;;;;;;;;;;;;;19.51;47.70;101942.19;4949543;28;7176;-78
2022/07/08 00:28:56;;;;;;;;;;;;;;;19.52;47.89;101935.25;4975476;28;8423;-78
2022/07/08 00:31:22;;;;;;;;;;;;;;;19.54;48.21;101939.69;4932117;28;8441;-78
2022/07/08 00:33:48;;;;;;;;;;;;;;;19.58;47.57;101940.69;4949520;28;7293;-78
2022/07/08 00:36:14;;;;;;;;;;;;;;;19.60;47.90;101938.13;4976510;28;6808;-78
2022/07/08 00:38:40;;;;;;;;;;;;;;;19.63;47.53;101935.66;4961219;28;6884;-78
2022/07/08 00:41:05;;;;;;;;;;;;;;;19.64;47.62;101940.88;4950955;28;7013;-78
2022/07/08 00:43:43;;;;;;;;;;;;;;;19.66;47.34;101946.16;4962179;28;6835;-79
2022/07/08 00:46:11;;;;;;;;;;;;;;;19.67;47.96;101945.31;4943851;28;6804;-78
2022/07/08 00:48:39;;;;;;;;;;;;;;;19.67;47.32;101943.63;4945707;28;7818;-78
2022/07/08 00:51:11;;;;;;;;;;;;;;;19.68;47.57;101947.97;4956916;28;6784;-78
2022/07/08 00:53:43;;;;;;;;;;;;;;;19.67;47.82;101946.22;4965970;28;6985;-78
2022/07/08 00:56:11;;;;;;;;;;;;;;;19.68;47.70;101944.47;4962569;28;6979;-78
2022/07/08 00:58:39;;;;;;;;;;;;;;;19.66;47.64;101946.16;4950344;28;6784;-78
2022/07/08 01:01:05;;;;;;;;;;;;;;;19.66;47.60;101952.25;4963993;28;7087;-78
2022/07/08 01:03:31;;;;;;;;;;;;;;;19.64;47.78;101956.47;4949025;28;6907;-78
2022/07/08 01:05:57;;;;;;;;;;;;;;;19.65;47.75;101945.28;4965716;28;6988;-78
2022/07/08 01:08:23;;;;;;;;;;;;;;;19.65;47.70;101944.38;4949123;28;7268;-78
2022/07/08 01:10:50;;;;;;;;;;;;;;;19.65;47.67;101944.38;4981065;28;7284;-78
2022/07/08 01:13:18;;;;;;;;;;;;;;;19.64;47.86;101948.69;4979252;28;7133;-78
2022/07/08 01:15:45;;;;;;;;;;;;;;;19.62;47.40;101944.28;4951692;28;7211;-78
2022/07/08 01:18:27;;;;;;;;;;;;;;;19.62;48.05;101944.28;4960467;28;7096;-78
2022/07/08 01:20:54;;;;;;;;;;;;;;;19.60;47.79;101940.72;4967219;28;6992;-78
2022/07/08 01:23:20;;;;;;;;;;;;;;;19.56;47.97;101939.75;4980091;28;6975;-78
2022/07/08 01:25:46;;;;;;;;;;;;;;;19.53;47.46;101940.53;4975163;28;7236;-78
2022/07/08 01:28:13;;;;;;;;;;;;;;;19.52;48.19;101945.66;4963067;28;8521;-78
2022/07/08 01:30:39;;;;;;;;;;;;;;;19.51;48.08;101947.38;4960852;28;8547;-78
2022/07/08 01:33:04;;;;;;;;;;;;;;;19.49;47.80;101949.03;4953511;28;6784;-78
2022/07/08 01:35:30;;;;;;;;;;;;;;;19.48;47.64;101951.59;4975974;28;6791;-78
2022/07/08 01:37:56;;;;;;;;;;;;;;;19.48;48.05;101949.84;4949136;28;7083;-78
2022/07/08 01:40:21;;;;;;;;;;;;;;;19.47;48.31;101950.69;4976673;28;7057;-78
2022/07/08 01:42:47;;;;;;;;;;;;;;;19.46;48.22;101948.03;4976312;28;6776;-78
2022/07/08 01:45:13;;;;;;;;;;;;;;;19.43;48.13;101944.50;4977837;28;6776;-78
2022/07/08 01:47:38;;;;;;;;;;;;;;;19.43;48.55;101946.22;4956115;28;7039;-78
2022/07/08 01:50:05;;;;;;;;;;;;;;;19.46;48.27;101948.03;4963037;28;7197;-78
2022/07/08 01:52:31;;;;;;;;;;;;;;;19.45;48.19;101941.97;4955429;28;6884;-78
2022/07/08 01:54:56;;;;;;;;;;;;;;;19.45;48.40;101943.66;4965185;28;7084;-78
2022/07/08 01:57:22;;;;;;;;;;;;;;;19.43;48.71;101943.63;4938651;28;8507;-78
2022/07/08 01:59:50;;;;;;;;;;;;;;;19.42;49.10;101941.84;4962407;28;9571;-78
2022/07/08 02:02:20;;;;;;;;;;;;;;;19.41;48.55;101940.06;4962793;28;8522;-78
2022/07/08 02:04:46;;;;;;;;;;;;;;;19.41;49.10;101942.66;4951162;28;7012;-77
2022/07/08 02:07:12;;;;;;;;;;;;;;;19.40;49.13;101946.09;4947282;28;6776;-78
2022/07/08 02:09:39;;;;;;;;;;;;;;;19.36;48.71;101936.44;4973485;28;6801;-78
2022/07/08 02:12:20;;;;;;;;;;;;;;;19.33;48.94;101937.19;4966184;28;7280;-78
2022/07/08 02:15:01;;;;;;;;;;;;;;;19.29;48.72;101937.94;4956653;28;7301;-78
2022/07/08 02:17:34;;;;;;;;;;;;;;;19.25;49.05;101944.72;4974510;28;6800;-78
2022/07/08 02:20:01;;;;;;;;;;;;;;;19.23;48.85;101946.38;4947469;28;6816;-78
2022/07/08 02:22:27;;;;;;;;;;;;;;;19.21;49.04;101942.81;4948328;28;8070;-78
2022/07/08 02:24:53;;;;;;;;;;;;;;;19.20;49.31;101940.19;4975265;28;6772;-78
2022/07/08 02:27:19;;;;;;;;;;;;;;;19.15;49.48;101946.06;4975953;28;8598;-78
2022/07/08 02:29:45;;;;;;;;;;;;;;;19.12;49.90;101937.28;4952282;28;7066;-79
2022/07/08 02:32:11;;;;;;;;;;;;;;;19.11;49.48;101946.81;4960602;28;6989;-80
2022/07/08 02:34:37;;;;;;;;;;;;;;;19.09;49.33;101950.16;4938409;28;8582;-80
2022/07/08 02:37:03;;;;;;;;;;;;;;;19.09;50.36;101950.16;4928186;28;8774;-80
2022/07/08 02:39:29;;;;;;;;;;;;;;;19.06;50.41;101940.53;4947348;28;7276;-80
2022/07/08 02:41:54;;;;;;;;;;;;;;;19.07;49.89;101950.09;4976652;28;7398;-80
2022/07/08 02:44:20;;;;;;;;;;;;;;;19.07;49.99;101947.50;4975684;28;6776;-80
2022/07/08 02:46:46;;;;;;;;;;;;;;;19.07;49.83;101950.09;4964993;28;6815;-80
2022/07/08 02:49:13;;;;;;;;;;;;;;;19.07;50.03;101946.63;4977539;28;6969;-80
2022/07/08 02:51:38;;;;;;;;;;;;;;;19.04;49.90;101939.59;4946459;28;7198;-80
2022/07/08 02:54:05;;;;;;;;;;;;;;;19.00;50.01;101943.78;4950972;28;6772;-80
2022/07/08 02:56:35;;;;;;;;;;;;;;;18.97;49.92;101935.84;4948495;28;6792;-80
2022/07/08 02:59:03;;;;;;;;;;;;;;;18.93;49.94;101936.59;4961917;28;8043;-80
2022/07/08 03:01:28;;;;;;;;;;;;;;;18.87;50.18;101941.53;4949213;28;6792;-80
2022/07/08 03:03:54;;;;;;;;;;;;;;;18.81;50.31;101938.69;4927925;28;7159;-80
2022/07/08 03:06:20;;;;;;;;;;;;;;;18.76;50.09;101953.22;4955455;28;6972;-79
2022/07/08 03:08:46;;;;;;;;;;;;;;;18.69;50.76;101958.16;4955281;28;6790;-80
2022/07/08 03:11:12;;;;;;;;;;;;;;;18.63;50.73;101960.50;4975755;28;7226;-80
2022/07/08 03:13:37;;;;;;;;;;;;;;;18.58;50.96;101949.06;4933550;28;8644;-80
2022/07/08 03:16:05;;;;;;;;;;;;;;;18.52;51.19;101939.34;4975211;28;6780;-80
2022/07/08 03:18:32;;;;;;;;;;;;;;;18.47;51.19;101953.81;4963896;28;8856;-80
2022/07/08 03:20:58;;;;;;;;;;;;;;;18.41;51.43;101951.88;4958565;28;6834;-80
2022/07/08 03:23:24;;;;;;;;;;;;;;;18.37;50.93;101960.38;4964320;28;7662;-80
2022/07/08 03:25:49;;;;;;;;;;;;;;;18.34;51.50;101954.16;4944636;28;8783;-80
2022/07/08 03:28:15;;;;;;;;;;;;;;;18.32;52.06;101951.50;4929294;28;7162;-80
2022/07/08 03:30:41;;;;;;;;;;;;;;;18.28;51.58;101950.47;4974324;28;6772;-80
2022/07/08 03:33:07;;;;;;;;;;;;;;;18.28;52.15;101960.00;4957756;28;7263;-80
2022/07/08 03:35:32;;;;;;;;;;;;;;;18.28;51.56;101952.22;4967590;28;6960;-80
2022/07/08 03:37:58;;;;;;;;;;;;;;;18.26;51.59;101956.47;4951681;28;7229;-81
2022/07/08 03:43:08;;;;;;;;;;;;;;;18.20;51.42;101962.25;4943389;28;6804;-78
2022/07/08 03:45:34;;;;;;;;;;;;;;;18.17;51.56;101962.13;4956476;28;7170;-78
2022/07/08 03:48:00;;;;;;;;;;;;;;;18.17;51.60;101967.31;4963546;28;7008;-79
2022/07/08 03:50:27;;;;;;;;;;;;;;;18.14;51.83;101967.22;4978461;28;7245;-78
2022/07/08 03:52:52;;;;;;;;;;;;;;;18.11;51.98;101962.78;4938656;28;6879;-78
2022/07/08 03:55:21;;;;;;;;;;;;;;;18.08;51.67;101965.25;4942929;28;8414;-78
2022/07/08 03:57:47;;;;;;;;;;;;;;;18.04;51.72;101966.81;4969316;28;6871;-78
2022/07/08 04:00:14;;;;;;;;;;;;;;;18.02;51.50;101970.13;4941947;28;7192;-78
2022/07/08 04:02:39;;;;;;;;;;;;;;;18.01;51.79;101970.97;4967161;28;11280;-78
2022/07/08 04:05:05;;;;;;;;;;;;;;;17.97;51.95;101971.66;4921696;28;7078;-78
2022/07/08 04:07:33;;;;;;;;;;;;;;;17.94;52.22;101975.00;4925961;28;8461;-78
2022/07/08 04:09:59;;;;;;;;;;;;;;;17.90;52.24;101976.56;4953308;28;7042;-77
2022/07/08 04:12:24;;;;;;;;;;;;;;;17.87;52.65;101980.75;4959068;28;8581;-77
2022/07/08 04:14:50;;;;;;;;;;;;;;;17.84;52.46;101976.31;4960526;28;6952;-78
2022/07/08 04:17:16;;;;;;;;;;;;;;;17.84;52.29;101975.44;4970935;28;6784;-78
2022/07/08 04:19:41;;;;;;;;;;;;;;;17.81;51.95;101980.47;4958122;28;7178;-78
2022/07/08 04:22:07;;;;;;;;;;;;;;;17.85;52.65;101995.34;4932500;28;7304;-78
2022/07/08 04:24:33;;;;;;;;;;;;;;;17.94;53.36;101995.75;4951546;28;7058;-78
2022/07/08 04:26:58;;;;;;;;;;;;;;;18.04;53.39;101994.47;4968920;28;8011;-79
2022/07/08 04:29:24;;;;;;;;;;;;;;;18.09;52.94;101995.56;4943812;28;8377;-78
2022/07/08 04:31:49;;;;;;;;;;;;;;;18.12;52.84;101994.81;4962562;28;6967;-78
2022/07/08 04:34:15;;;;;;;;;;;;;;;18.12;53.09;101995.69;4971040;28;7040;-78
2022/07/08 04:36:41;;;;;;;;;;;;;;;18.22;53.20;101990.88;4968688;28;7904;-78
2022/07/08 04:39:06;;;;;;;;;;;;;;;18.40;53.68;101993.38;4963546;28;6852;-78
2022/07/08 04:41:32;;;;;;;;;;;;;;;18.60;54.01;101999.34;4941456;28;7279;-78
2022/07/08 04:43:58;;;;;;;;;;;;;;;18.83;53.54;102000.28;4965388;28;6955;-77
2022/07/08 04:46:23;;;;;;;;;;;;;;;19.07;53.74;101996.88;4968193;28;8553;-78
2022/07/08 04:48:49;;;;;;;;;;;;;;;19.41;53.92;101997.25;4969166;28;6768;-78
2022/07/08 04:51:15;;;;;;;;;;;;;;;19.72;53.57;101993.19;4967722;28;8323;-78
2022/07/08 04:53:40;;;;;;;;;;;;;;;20.05;52.74;101994.34;4966571;28;6783;-78
2022/07/08 04:56:06;;;;;;;;;;;;;;;20.35;52.60;101991.00;4967051;28;6780;-78
2022/07/08 04:58:32;;;;;;;;;;;;;;;20.66;51.93;101995.44;4988117;28;7023;-78
2022/07/08 05:00:58;;;;;;;;;;;;;;;20.90;51.12;101981.47;4968675;28;7231;-78
2022/07/08 05:03:24;;;;;;;;;;;;;;;21.14;50.43;101984.75;4938966;28;7128;-78
2022/07/08 05:05:49;;;;;;;;;;;;;;;21.36;49.94;101983.66;4941223;28;7122;-78
2022/07/08 05:08:15;;;;;;;;;;;;;;;21.59;50.26;101978.19;4981548;28;7836;-78
2022/07/08 05:10:41;;;;;;;;;;;;;;;21.89;49.82;101983.41;4986017;28;7121;-78
2022/07/08 05:13:07;;;;;;;;;;;;;;;22.21;49.46;101982.44;4971592;28;8407;-78
2022/07/08 05:15:33;;;;;;;;;;;;;;;22.55;49.31;101985.91;4968846;28;6874;-78
2022/07/08 05:17:59;;;;;;;;;;;;;;;22.92;48.47;101977.16;4970281;28;8679;-78
2022/07/08 05:20:25;;;;;;;;;;;;;;;23.28;47.29;101979.69;4979532;28;6776;-78
2022/07/08 05:22:51;;;;;;;;;;;;;;;23.54;45.85;101978.41;4967220;28;6796;-78
2022/07/08 05:25:16;;;;;;;;;;;;;;;23.71;44.85;101984.84;4965770;28;7825;-79
2022/07/08 05:27:42;;;;;;;;;;;;;;;23.81;43.65;101985.91;4966464;28;8734;-79
2022/07/08 05:30:11;;;;;;;;;;;;;;;23.90;43.82;101982.56;4962368;28;7245;-79
2022/07/08 05:32:38;;;;;;;;;;;;;;;23.98;42.69;101983.59;4971435;28;7304;-79
2022/07/08 05:35:05;;;;;;;;;;;;;;;24.03;42.95;101990.63;4963672;28;8780;-79
2022/07/08 05:37:32;;;;;;;;;;;;;;;24.09;42.60;101994.28;4965992;28;7191;-78
2022/07/08 05:39:58;;;;;;;;;;;;;;;24.13;42.42;101997.81;4983435;28;8875;-78
2022/07/08 05:42:24;;;;;;;;;;;;;;;24.18;42.48;102004.03;4950997;28;8383;-78
2022/07/08 05:44:50;;;;;;;;;;;;;;;24.23;42.29;102007.59;4977926;28;6860;-79
2022/07/08 05:47:16;;;;;;;;;;;;;;;24.28;42.17;101999.81;4966175;28;6784;-78
2022/07/08 05:49:44;;;;;;;;;;;;;;;24.34;41.77;102002.53;4978954;28;6772;-78
2022/07/08 05:52:11;;;;;;;;;;;;;;;24.40;41.08;102004.38;4976814;28;6955;-78
2022/07/08 05:54:38;;;;;;;;;;;;;;;24.39;41.04;102011.38;4942505;28;7020;-78
2022/07/08 05:57:04;;;;;;;;;;;;;;;24.44;41.03;102018.41;4979923;28;8003;-79
2022/07/08 05:59:31;;;;;;;;;;;;;;;24.43;40.82;102020.13;4943105;28;7171;-78
2022/07/08 06:01:56;;;;;;;;;;;;;;;24.38;40.76;102025.31;4937965;28;8618;-78
2022/07/08 06:04:22;;;;;;;;;;;;;;;24.24;40.39;102034.69;4978243;28;6984;-78
2022/07/08 06:06:48;;;;;;;;;;;;;;;23.96;40.58;102042.91;4978910;28;6856;-78
2022/07/08 06:09:14;;;;;;;;;;;;;;;23.67;39.98;102045.88;4951532;28;7334;-79
2022/07/08 06:11:40;;;;;;;;;;;;;;;23.34;40.29;102048.66;4977493;28;7182;-78
2022/07/08 06:14:05;;;;;;;;;;;;;;;23.01;40.39;102046.19;4973040;28;6856;-78
2022/07/08 06:16:31;;;;;;;;;;;;;;;22.73;40.93;102052.53;4968885;28;6971;-78
2022/07/08 06:18:57;;;;;;;;;;;;;;;22.46;41.31;102058.81;4948594;28;6781;-78
2022/07/08 06:21:22;;;;;;;;;;;;;;;22.23;41.67;102064.34;4972744;28;7180;-78
2022/07/08 06:23:48;;;;;;;;;;;;;;;22.03;41.60;102069.00;4962141;28;7250;-78
2022/07/08 06:26:14;;;;;;;;;;;;;;;21.83;42.24;102068.47;4940638;28;7302;-78
2022/07/08 06:28:39;;;;;;;;;;;;;;;21.69;42.74;102076.78;4982385;28;7262;-78
2022/07/08 06:31:05;;;;;;;;;;;;;;;21.60;43.04;102063.44;4961683;28;7038;-78
2022/07/08 06:33:31;;;;;;;;;;;;;;;21.50;42.89;102072.75;4960379;28;6868;-78
2022/07/08 06:35:56;;;;;;;;;;;;;;;21.38;43.22;102068.03;4977691;28;6933;-79
2022/07/08 06:38:22;;;;;;;;;;;;;;;21.28;43.52;102073.81;4975659;28;8588;-79
2022/07/08 06:40:48;;;;;;;;;;;;;;;21.23;44.07;102069.34;4977549;28;6832;-79
2022/07/08 06:43:13;;;;;;;;;;;;;;;21.23;43.60;102079.75;4976642;28;6776;-80
2022/07/08 06:45:39;;;;;;;;;;;;;;;21.21;43.38;102080.56;4963881;28;8058;-78
2022/07/08 06:48:05;;;;;;;;;;;;;;;21.18;43.42;102068.31;4948493;28;7158;-79
2022/07/08 06:50:31;;;;;;;;;;;;;;;21.14;43.36;102074.25;4973752;28;7469;-78
2022/07/08 06:52:57;;;;;;;;;;;;;;;21.14;43.48;102073.41;4975278;28;6938;-78
2022/07/08 06:55:23;;;;;;;;;;;;;;;21.16;43.94;102071.72;4945735;28;6784;-78
2022/07/08 06:57:48;;;;;;;;;;;;;;;21.17;43.99;102074.38;4947665;28;6983;-78
2022/07/08 07:00:15;;;;;;;;;;;;;;;21.25;43.65;102076.34;4946584;28;7238;-78
2022/07/08 07:02:41;;;;;;;;;;;;;;;21.33;44.03;102070.50;4933476;28;7273;-78
2022/07/08 07:05:08;;;;;;;;;;;;;;;21.57;44.15;102060.75;4974101;28;7044;-79
2022/07/08 07:07:34;;;;;;;;;;;;;;;21.91;43.99;102056.50;4937683;28;8507;-78
2022/07/08 07:10:00;;;;;;;;;;;;;;;22.24;43.34;102055.66;4952273;28;8047;-78
2022/07/08 07:12:26;;;;;;;;;;;;;;;22.64;43.38;102062.75;4973742;28;6971;-78
2022/07/08 07:14:52;;;;;;;;;;;;;;;23.13;43.34;102050.81;4965207;28;7396;-78
2022/07/08 07:17:20;;;;;;;;;;;;;;;23.68;42.07;102047.63;4963629;28;7218;-78
2022/07/08 07:19:47;;;;;;;;;;;;;;;24.17;41.32;102046.81;4974727;28;6980;-78
2022/07/08 07:22:15;;;;;;;;;;;;;;;24.68;40.26;102054.59;4963626;28;6974;-78
2022/07/08 07:24:41;;;;;;;;;;;;;;;24.94;38.17;102057.66;4935073;28;6984;-78
2022/07/08 07:27:07;;;;;;;;;;;;;;;24.98;37.91;102061.19;4960248;28;6792;-78
2022/07/08 07:29:34;;;;;;;;;;;;;;;25.00;37.52;102062.09;4975038;28;6945;-78
2022/07/08 07:32:00;;;;;;;;;;;;;;;25.12;37.46;102063.16;4946529;28;7110;-78
2022/07/08 07:34:26;;;;;;;;;;;;;;;25.41;38.00;102052.16;4965175;28;6953;-78
2022/07/08 07:36:52;;;;;;;;;;;;;;;25.70;36.90;102062.16;4978053;28;6941;-80
2022/07/08 07:39:18;;;;;;;;;;;;;;;25.60;35.68;102059.41;4935278;28;7057;-78
2022/07/08 07:41:44;;;;;;;;;;;;;;;25.45;36.25;102064.44;4979113;28;7114;-78
2022/07/08 07:44:09;;;;;;;;;;;;;;;25.52;36.24;102068.94;4951072;28;7097;-77
2022/07/08 07:46:35;;;;;;;;;;;;;;;25.51;36.01;102067.19;4973707;28;6768;-78
2022/07/08 07:49:01;;;;;;;;;;;;;;;25.60;36.44;102067.28;4962360;28;6962;-79
2022/07/08 07:51:27;;;;;;;;;;;;;;;25.77;35.68;102066.59;4961690;28;6808;-78
2022/07/08 07:53:54;;;;;;;;;;;;;;;25.90;35.77;102067.59;4942833;28;7065;-79
2022/07/08 07:56:20;;;;;;;;;;;;;;;26.07;35.49;102070.38;4961601;28;6784;-79
2022/07/08 07:58:45;;;;;;;;;;;;;;;26.29;35.40;102076.75;4962352;28;6772;-79
2022/07/08 08:01:11;;;;;;;;;;;;;;;26.56;34.81;102075.25;4965867;28;8367;-78
2022/07/08 08:03:37;;;;;;;;;;;;;;;26.62;34.49;102071.78;4962626;28;6768;-78
2022/07/08 08:06:04;;;;;;;;;;;;;;;26.73;34.35;102075.34;4934281;28;7166;-78
2022/07/08 08:08:33;;;;;;;;;;;;;;;26.88;34.18;102077.22;4947914;28;6969;-78
2022/07/08 08:11:00;;;;;;;;;;;;;;;27.01;34.00;102072.94;4930494;28;8159;-78
2022/07/08 08:13:26;;;;;;;;;;;;;;;27.33;34.33;102060.81;4944848;28;7039;-79
2022/07/08 08:15:51;;;;;;;;;;;;;;;27.79;33.83;102067.16;4943820;28;6929;-79
2022/07/08 08:18:17;;;;;;;;;;;;;;;28.12;33.20;102063.69;4974589;28;7165;-78
2022/07/08 08:20:43;;;;;;;;;;;;;;;28.33;32.53;102068.97;4972351;28;6919;-79
2022/07/08 08:23:09;;;;;;;;;;;;;;;28.58;32.12;102075.13;4972872;28;8945;-79
2022/07/08 08:25:35;;;;;;;;;;;;;;;28.76;31.96;102070.69;4961027;28;7303;-79
2022/07/08 08:28:03;;;;;;;;;;;;;;;28.86;31.77;102061.91;4946348;28;6966;-78
2022/07/08 08:30:29;;;;;;;;;;;;;;;29.06;31.20;102069.78;4958524;28;6804;-78
2022/07/08 08:32:56;;;;;;;;;;;;;;;29.32;31.18;102063.53;4934004;28;7035;-78
2022/07/08 08:35:21;;;;;;;;;;;;;;;29.65;30.86;102063.41;4969348;28;7239;-80
2022/07/08 08:37:48;;;;;;;;;;;;;;;29.96;30.43;102057.94;4977762;28;6844;-79
2022/07/08 08:40:14;;;;;;;;;;;;;;;30.24;30.02;102054.22;4957541;28;7127;-79
2022/07/08 08:42:42;;;;;;;;;;;;;;;30.45;29.07;102055.78;4960186;28;7121;-79
2022/07/08 08:45:09;;;;;;;;;;;;;;;30.76;28.64;102059.06;4963747;28;7001;-79
2022/07/08 08:47:36;;;;;;;;;;;;;;;31.17;28.86;102054.16;4957951;28;7215;-79
2022/07/08 08:52:56;;;;;;;;;;;;;;;31.90;28.28;102043.47;4948978;28;6808;-79
2022/07/08 08:55:30;;;;;;;;;;;;;;;32.24;27.34;102040.28;4956678;28;8677;-79
2022/07/08 08:58:03;;;;;;;;;;;;;;;32.35;27.12;102040.97;4950268;28;6819;-79
2022/07/08 09:00:31;;;;;;;;;;;;;;;32.51;27.44;102046.03;4956670;28;6812;-79
2022/07/08 09:02:59;;;;;;;;;;;;;;;32.82;26.90;102045.44;4928128;28;7268;-79
2022/07/08 09:05:26;;;;;;;;;;;;;;;33.08;26.22;102039.63;4949711;28;7242;-79
2022/07/08 09:07:52;;;;;;;;;;;;;;;33.10;26.10;102034.28;4950831;28;7145;-79
2022/07/08 09:10:21;;;;;;;;;;;;;;;33.07;25.92;102037.88;4957722;28;8776;-79
2022/07/08 09:13:12;;;;;;;;;;;;;;;33.24;25.96;102036.66;4935605;28;6976;-79
2022/07/08 09:15:40;;;;;;;;;;;;;;;33.48;25.76;102034.38;4962348;28;7060;-78
2022/07/08 09:18:12;;;;;;;;;;;;;;;33.69;25.80;102021.47;4978613;28;7177;-78
2022/07/08 09:20:52;;;;;;;;;;;;;;;34.01;25.58;102036.66;4960594;28;7260;-78
2022/07/08 09:23:38;;;;;;;;;;;;;;;34.27;24.93;102020.94;4976487;28;7296;-78
2022/07/08 09:26:07;;;;;;;;;;;;;;;34.53;24.42;102022.06;4963697;28;7233;-79
2022/07/08 09:28:41;;;;;;;;;;;;;;;34.79;24.05;102021.31;4979518;28;6888;-80
2022/07/08 09:31:09;;;;;;;;;;;;;;;34.99;24.21;102030.50;4940418;28;6999;-80
2022/07/08 09:33:35;;;;;;;;;;;;;;;35.03;23.42;102033.03;4943060;28;8712;-80
2022/07/08 09:36:04;;;;;;;;;;;;;;;35.12;23.69;102029.28;4940230;28;8280;-80
2022/07/08 09:38:37;;;;;;;;;;;;;;;35.29;23.64;102031.41;4979726;28;6799;-80
2022/07/08 09:41:16;;;;;;;;;;;;;;;35.56;22.88;102033.28;4949604;28;7217;-79
2022/07/08 09:43:45;;;;;;;;;;;;;;;35.82;22.32;102027.09;4970208;28;6988;-80
2022/07/08 09:46:11;;;;;;;;;;;;;;;35.68;22.70;102037.34;4946555;28;8213;-79
2022/07/08 09:48:36;;;;;;;;;;;;;;;35.37;22.58;102027.66;4947800;28;7800;-79
2022/07/08 09:51:07;;;;;;;;;;;;;;;34.94;22.97;102038.63;4967709;28;6855;-79
2022/07/08 09:53:35;;;;;;;;;;;;;;;34.62;23.02;102027.13;4987105;28;7322;-79
2022/07/08 09:56:03;;;;;;;;;;;;;;;34.28;23.31;102030.66;4947610;28;6979;-79
2022/07/08 09:58:32;;;;;;;;;;;;;;;33.89;23.28;102028.97;4952568;28;6967;-80
2022/07/08 10:01:00;;;;;;;;;;;;;;;33.66;23.87;102031.28;4947062;28;7298;-79
2022/07/08 10:03:27;;;;;;;;;;;;;;;33.62;23.85;102034.03;4967734;28;6981;-80
2022/07/08 10:05:57;;;;;;;;;;;;;;;33.58;23.64;102037.69;4941134;28;8732;-80
2022/07/08 10:08:26;;;;;;;;;;;;;;;33.67;23.75;102024.19;4949421;28;6864;-79
2022/07/08 10:10:57;;;;;;;;;;;;;;;33.93;24.17;102025.31;4977718;28;6855;-79
2022/07/08 10:13:25;;;;;;;;;;;;;;;34.42;24.14;102023.19;4963908;28;6991;-79
2022/07/08 10:15:59;;;;;;;;;;;;;;;34.80;23.15;102024.88;4978743;28;6861;-79
2022/07/08 10:18:49;;;;;;;;;;;;;;;34.88;22.86;102025.53;4950755;28;6816;-80
2022/07/08 10:21:22;;;;;;;;;;;;;;;34.72;22.96;102022.41;4963429;28;7154;-79
2022/07/08 10:23:54;;;;;;;;;;;;;;;34.29;23.39;102025.31;4955570;28;7193;-81
2022/07/08 10:26:31;;;;;;;;;;;;;;;33.59;24.07;102029.66;4957645;28;7868;-81
2022/07/08 10:29:08;;;;;;;;;;;;;;;33.05;24.87;102042.34;4938436;28;8439;-79
2022/07/08 10:31:46;;;;;;;;;;;;;;;32.63;25.07;102039.59;4954522;28;7026;-79
2022/07/08 10:34:17;;;;;;;;;;;;;;;32.16;25.25;102045.72;4967130;28;6960;-80
2022/07/08 10:36:48;;;;;;;;;;;;;;;31.73;25.62;102039.31;4972857;28;7018;-79
2022/07/08 10:39:37;;;;;;;;;;;;;;;31.35;25.71;102038.94;4963393;28;6976;-78
2022/07/08 10:42:05;;;;;;;;;;;;;;;31.30;26.56;102040.81;4950790;28;7195;-79
2022/07/08 10:44:43;;;;;;;;;;;;;;;31.61;27.52;102047.41;4954844;28;8390;-79
2022/07/08 10:47:23;;;;;;;;;;;;;;;32.14;26.55;102045.75;4980526;28;8471;-79
2022/07/08 10:49:50;;;;;;;;;;;;;;;32.51;25.92;102040.72;4947024;28;6811;-78
2022/07/08 10:52:21;;;;;;;;;;;;;;;32.66;25.75;102042.22;4978579;28;6784;-79
2022/07/08 10:54:46;;;;;;;;;;;;;;;32.88;25.74;102047.09;4964187;28;7249;-80
2022/07/08 10:57:27;;;;;;;;;;;;;;;33.16;25.00;102054.53;4967090;28;6772;-80
2022/07/08 11:00:05;;;;;;;;;;;;;;;33.27;24.96;102036.56;4952788;28;7254;-80
2022/07/08 11:02:31;;;;;;;;;;;;;;;33.37;24.91;102035.44;4965936;28;7178;-80
2022/07/08 11:04:57;;;;;;;;;;;;;;;33.56;24.80;102039.50;4969293;28;7868;-79
2022/07/08 11:07:29;;;;;;;;;;;;;;;33.54;24.75;102033.34;4968837;28;6970;-79
2022/07/08 11:10:11;;;;;;;;;;;;;;;33.29;24.77;102029.44;4940119;28;8429;-79
2022/07/08 11:12:45;;;;;;;;;;;;;;;33.29;25.13;102025.91;4946679;28;6982;-80
2022/07/08 11:15:17;;;;;;;;;;;;;;;33.69;25.65;102017.06;4962698;28;6992;-80
2022/07/08 11:17:46;;;;;;;;;;;;;;;34.33;25.45;102018.13;4960079;28;6828;-79
2022/07/08 11:20:18;;;;;;;;;;;;;;;34.97;24.13;102019.94;4964215;28;7002;-80
2022/07/08 11:22:45;;;;;;;;;;;;;;;35.52;24.30;102021.81;4931340;28;6991;-79
2022/07/08 11:25:16;;;;;;;;;;;;;;;35.95;23.55;102024.03;4968377;28;8654;-79
2022/07/08 11:27:43;;;;;;;;;;;;;;;36.34;23.23;102031.59;4979465;28;8525;-80
2022/07/08 11:30:15;;;;;;;;;;;;;;;36.64;22.55;102028.75;4979492;28;6812;-80
2022/07/08 11:32:42;;;;;;;;;;;;;;;36.90;22.76;102021.59;4967350;28;11312;-79
2022/07/08 11:35:09;;;;;;;;;;;;;;;37.19;22.80;102022.28;4948889;28;8061;-79
2022/07/08 11:37:45;;;;;;;;;;;;;;;37.36;21.54;102016.25;4956056;28;6796;-80
2022/07/08 11:40:14;;;;;;;;;;;;;;;37.40;22.08;102016.13;4946858;28;7354;-79
2022/07/08 11:42:41;;;;;;;;;;;;;;;37.35;21.26;102021.66;4975165;28;7868;-80
2022/07/08 11:45:12;;;;;;;;;;;;;;;37.03;21.14;102013.09;4947144;28;7746;-79
2022/07/08 11:47:39;;;;;;;;;;;;;;;36.78;21.63;102014.00;4946057;28;6931;-79
2022/07/08 11:50:10;;;;;;;;;;;;;;;36.84;22.08;102019.13;4943095;28;7222;-79
2022/07/08 11:52:35;;;;;;;;;;;;;;;37.08;21.71;102009.34;4942713;28;7005;-79
2022/07/08 11:55:01;;;;;;;;;;;;;;;37.30;21.78;102007.63;4958588;28;8763;-79
2022/07/08 11:57:28;;;;;;;;;;;;;;;37.34;21.33;102004.75;4967248;28;7319;-79
2022/07/08 11:59:54;;;;;;;;;;;;;;;37.15;21.09;102001.94;4973492;28;7037;-79
2022/07/08 12:02:24;;;;;;;;;;;;;;;37.03;21.75;102003.25;4949811;28;7188;-79
2022/07/08 12:04:51;;;;;;;;;;;;;;;36.94;21.95;102006.28;4973331;28;8464;-78
2022/07/08 12:07:26;;;;;;;;;;;;;;;36.97;21.93;101995.50;4961646;28;6964;-79
2022/07/08 12:09:58;;;;;;;;;;;;;;;36.75;22.35;101999.00;4937616;28;6990;-79
2022/07/08 12:12:27;;;;;;;;;;;;;;;36.54;21.93;102003.31;4931113;28;7035;-79
2022/07/08 12:14:54;;;;;;;;;;;;;;;36.04;22.17;101991.69;4943165;28;6808;-80
2022/07/08 12:17:37;;;;;;;;;;;;;;;35.14;22.62;101986.59;4947832;28;7001;-79
2022/07/08 12:20:04;;;;;;;;;;;;;;;34.37;22.95;101993.16;4955149;28;7007;-81
2022/07/08 12:22:49;;;;;;;;;;;;;;;33.53;23.73;101995.28;4970595;28;7055;-79
2022/07/08 12:25:17;;;;;;;;;;;;;;;32.92;24.45;101993.03;4953894;28;7175;-82
2022/07/08 12:27:58;;;;;;;;;;;;;;;32.57;25.08;102011.41;4929072;28;6988;-77
2022/07/08 12:30:30;;;;;;;;;;;;;;;32.34;25.42;102006.50;4947537;28;7261;-78
2022/07/08 12:33:06;;;;;;;;;;;;;;;32.27;26.40;102008.41;4945375;28;7240;-78
2022/07/08 12:35:34;;;;;;;;;;;;;;;32.23;26.60;102004.91;4955698;28;8284;-77
2022/07/08 12:38:10;;;;;;;;;;;;;;;32.26;26.71;101996.94;4969597;28;7304;-79
2022/07/08 12:40:43;;;;;;;;;;;;;;;32.31;27.13;101995.97;4961764;28;6993;-78
2022/07/08 12:43:11;;;;;;;;;;;;;;;32.34;26.25;101994.13;4947583;28;6808;-78
2022/07/08 12:45:38;;;;;;;;;;;;;;;32.25;26.52;101992.50;4946677;28;6967;-77
2022/07/08 12:48:04;;;;;;;;;;;;;;;32.14;26.50;101995.38;4947241;28;6895;-78
2022/07/08 12:50:32;;;;;;;;;;;;;;;32.08;26.38;101999.91;4961618;28;7020;-78
2022/07/08 12:52:59;;;;;;;;;;;;;;;32.08;26.42;101999.91;4958542;28;6874;-78
2022/07/08 12:55:25;;;;;;;;;;;;;;;32.13;26.26;102001.56;4955015;28;6807;-78
2022/07/08 12:57:51;;;;;;;;;;;;;;;32.30;26.67;102002.16;4939742;28;6963;-78